Time;durP1;ratioP1;P1;durP2;ratioP2;P2;SDS_P1;SDS_P2;PMS_P1;PMS_P2;Temp;Humidity;BMP_temperature;BMP_pressure;BME280_temperature;BME280_humidity;BME280_pressure;Samples;Min_cycle;Max_cycle;Signal;HPM_P1;HPM_P2
2022/09/13 00:01:35;;;;;;;7.73;5.53;;;17.10;99.90;;;;;;4978482;28;20410;-74
2022/09/13 00:04:01;;;;;;;11.20;4.70;;;17.00;99.90;;;;;;4978373;28;20508;-73
2022/09/13 00:06:30;;;;;;;7.40;5.27;;;17.00;99.90;;;;;;4978104;28;20495;-73
2022/09/13 00:08:57;;;;;;;6.00;5.40;;;17.00;99.90;;;;;;4976953;28;20480;-75
2022/09/13 00:11:32;;;;;;;7.27;5.33;;;17.00;99.90;;;;;;4977073;28;20413;-73
2022/09/13 00:14:05;;;;;;;7.03;5.40;;;17.00;99.90;;;;;;4978006;28;20792;-74
2022/09/13 00:16:37;;;;;;;7.20;5.60;;;16.90;99.90;;;;;;4977791;28;20504;-75
2022/09/13 00:19:04;;;;;;;6.20;5.23;;;16.90;99.90;;;;;;4995501;28;20594;-74
2022/09/13 00:21:31;;;;;;;7.17;5.30;;;16.80;99.90;;;;;;4977934;28;20429;-75
2022/09/13 00:24:03;;;;;;;8.23;5.67;;;16.80;99.90;;;;;;4977609;28;20445;-74
2022/09/13 00:26:30;;;;;;;6.43;5.47;;;16.80;99.90;;;;;;4977819;28;20417;-74
2022/09/13 00:29:01;;;;;;;7.40;5.30;;;16.80;99.90;;;;;;4977525;28;20488;-74
2022/09/13 00:31:29;;;;;;;6.10;5.50;;;16.70;99.90;;;;;;4977540;28;20417;-73
2022/09/13 00:33:57;;;;;;;6.00;4.90;;;16.70;99.90;;;;;;4994799;28;20434;-75
2022/09/13 00:36:26;;;;;;;6.43;5.50;;;16.60;99.90;;;;;;4977391;28;20553;-74
2022/09/13 00:38:57;;;;;;;9.97;5.70;;;16.60;99.90;;;;;;4977299;28;20854;-73
2022/09/13 00:41:24;;;;;;;5.93;5.30;;;16.50;99.90;;;;;;4977379;28;20512;-73
2022/09/13 00:44:03;;;;;;;6.47;5.37;;;16.50;99.90;;;;;;4977063;28;20434;-73
2022/09/13 00:46:45;;;;;;;7.70;4.93;;;16.40;99.90;;;;;;4977460;28;20928;-75
2022/09/13 00:49:17;;;;;;;7.13;5.70;;;16.40;99.90;;;;;;4994599;28;20557;-73
2022/09/13 00:51:49;;;;;;;6.83;5.50;;;16.30;99.90;;;;;;4976960;28;20959;-73
2022/09/13 00:54:19;;;;;;;6.43;5.30;;;16.30;99.90;;;;;;4977540;28;20417;-75
2022/09/13 00:56:53;;;;;;;6.80;6.03;;;16.20;99.90;;;;;;4977256;28;20926;-75
2022/09/13 00:59:28;;;;;;;8.40;5.80;;;16.20;99.90;;;;;;4977252;28;20406;-73
2022/09/13 01:02:00;;;;;;;6.53;4.93;;;16.10;99.90;;;;;;4977115;28;20773;-75
2022/09/13 01:04:32;;;;;;;9.63;5.60;;;16.10;99.90;;;;;;4977163;28;20421;-75
2022/09/13 01:07:04;;;;;;;6.67;5.97;;;16.10;99.90;;;;;;4994764;28;20413;-73
2022/09/13 01:09:36;;;;;;;6.17;5.57;;;16.00;99.90;;;;;;4977092;28;20481;-75
2022/09/13 01:12:25;;;;;;;6.73;5.87;;;16.00;99.90;;;;;;4976899;28;20429;-75
2022/09/13 01:14:58;;;;;;;7.63;4.70;;;16.00;99.90;;;;;;4976900;28;20783;-75
2022/09/13 01:17:28;;;;;;;6.80;5.70;;;15.90;99.90;;;;;;4977032;28;20449;-74
2022/09/13 01:20:00;;;;;;;7.23;6.53;;;15.90;99.90;;;;;;4976343;28;20421;-75
2022/09/13 01:22:31;;;;;;;6.80;6.10;;;15.90;99.90;;;;;;4976880;28;20445;-74
2022/09/13 01:25:20;;;;;;;5.87;5.20;;;15.80;99.90;;;;;;4994137;28;20414;-73
2022/09/13 01:27:51;;;;;;;6.07;4.90;;;15.80;99.90;;;;;;4976632;28;20457;-73
2022/09/13 01:30:19;;;;;;;6.27;5.67;;;15.80;99.90;;;;;;4977009;28;20513;-75
2022/09/13 01:33:01;;;;;;;6.40;5.23;;;15.80;99.90;;;;;;4976482;28;20457;-73
2022/09/13 01:36:03;;;;;;;8.17;4.80;;;15.80;99.90;;;;;;4976665;28;20457;-74
2022/09/13 01:38:32;;;;;;;6.67;5.10;;;15.80;99.90;;;;;;4976348;28;20548;-74
2022/09/13 01:41:37;;;;;;;7.30;5.40;;;15.70;99.90;;;;;;4976699;28;20425;-75
2022/09/13 01:44:21;;;;;;;6.57;5.60;;;15.70;99.90;;;;;;4994216;28;20449;-75
2022/09/13 01:46:57;;;;;;;5.63;4.90;;;15.60;99.90;;;;;;4976705;28;20942;-73
2022/09/13 01:49:50;;;;;;;6.33;5.23;;;15.60;99.90;;;;;;4976869;28;20996;-75
2022/09/13 01:52:38;;;;;;;6.60;5.07;;;15.60;99.90;;;;;;4973185;28;20489;-73
2022/09/13 01:55:16;;;;;;;6.07;5.27;;;15.60;99.90;;;;;;4973482;28;20857;-73
2022/09/13 01:57:53;;;;;;;8.33;6.70;;;15.50;99.90;;;;;;4972927;28;20454;-73
2022/09/13 02:00:21;;;;;;;11.27;7.57;;;15.50;99.90;;;;;;4973879;28;20473;-73
2022/09/13 02:03:09;;;;;;;7.40;6.27;;;15.50;99.90;;;;;;4973555;28;20438;-73
2022/09/13 02:06:06;;;;;;;6.17;5.57;;;15.50;99.90;;;;;;4973498;28;20932;-73
2022/09/13 02:08:48;;;;;;;5.73;5.13;;;15.40;99.90;;;;;;4973279;28;20512;-74
2022/09/13 02:11:21;;;;;;;6.80;6.00;;;15.40;99.90;;;;;;4973472;28;20497;-73
2022/09/13 02:14:06;;;;;;;9.10;6.13;;;15.30;99.90;;;;;;4973136;28;20460;-73
2022/09/13 02:17:00;;;;;;;8.10;6.27;;;15.30;99.90;;;;;;4973251;28;20418;-73
2022/09/13 02:19:33;;;;;;;6.77;5.00;;;15.30;99.90;;;;;;4965290;28;20434;-74
2022/09/13 02:22:01;;;;;;;6.67;5.97;;;15.20;99.90;;;;;;4973130;28;20946;-73
2022/09/13 02:24:39;;;;;;;5.13;4.63;;;15.30;99.90;;;;;;4973159;28;20939;-75
2022/09/13 02:27:14;;;;;;;5.00;4.60;;;15.20;99.90;;;;;;4974492;28;20418;-73
2022/09/13 02:29:46;;;;;;;7.97;6.10;;;15.30;99.90;;;;;;4972745;28;20513;-74
2022/09/13 02:32:16;;;;;;;6.40;5.70;;;15.20;99.90;;;;;;4974502;28;20977;-73
2022/09/13 02:35:02;;;;;;;6.53;5.80;;;15.20;99.90;;;;;;4977834;28;20846;-75
2022/09/13 02:37:35;;;;;;;8.10;6.23;;;15.20;99.90;;;;;;4975722;28;20454;-73
2022/09/13 02:40:11;;;;;;;7.37;5.47;;;15.20;99.90;;;;;;4976343;28;20415;-73
2022/09/13 02:42:44;;;;;;;5.57;5.00;;;15.10;99.90;;;;;;4976323;28;20541;-75
2022/09/13 02:45:17;;;;;;;7.23;5.40;;;15.10;99.90;;;;;;4976413;28;20420;-75
2022/09/13 02:47:50;;;;;;;7.53;5.63;;;15.10;99.90;;;;;;4976259;28;20454;-75
2022/09/13 02:50:34;;;;;;;7.57;6.27;;;15.10;99.90;;;;;;4976248;28;20422;-73
2022/09/13 02:53:25;;;;;;;5.83;5.23;;;15.10;99.90;;;;;;4975531;28;20477;-75
2022/09/13 02:56:34;;;;;;;10.50;5.97;;;15.00;99.90;;;;;;4977368;28;20418;-75
2022/09/13 02:59:13;;;;;;;6.07;5.47;;;15.00;99.90;;;;;;4976079;28;20442;-73
2022/09/13 03:01:49;;;;;;;6.90;5.87;;;15.00;99.90;;;;;;4976028;28;20434;-74
2022/09/13 03:04:17;;;;;;;6.93;5.50;;;15.00;99.90;;;;;;4976051;28;20505;-73
2022/09/13 03:06:44;;;;;;;7.00;5.30;;;15.00;99.90;;;;;;4975997;28;20505;-73
2022/09/13 03:09:12;;;;;;;6.43;5.83;;;14.90;99.90;;;;;;4975862;28;20509;-75
2022/09/13 03:11:58;;;;;;;6.13;5.17;;;14.90;99.90;;;;;;4976051;28;20513;-75
2022/09/13 03:14:42;;;;;;;5.23;4.73;;;14.90;99.90;;;;;;4975855;28;20422;-73
2022/09/13 03:17:15;;;;;;;6.33;5.30;;;14.90;99.90;;;;;;4977207;28;21239;-75
2022/09/13 03:20:00;;;;;;;7.80;6.27;;;14.90;99.90;;;;;;4975955;28;20419;-75
2022/09/13 03:22:47;;;;;;;6.57;5.13;;;14.80;99.90;;;;;;4975772;28;20461;-74
2022/09/13 03:25:47;;;;;;;10.30;6.10;;;14.80;99.90;;;;;;4975581;28;20437;-73
2022/09/13 03:28:22;;;;;;;6.20;5.60;;;14.80;99.90;;;;;;4974409;28;20942;-75
2022/09/13 03:31:05;;;;;;;5.33;4.83;;;14.80;99.90;;;;;;4974949;28;20445;-74
2022/09/13 03:33:48;;;;;;;5.57;5.07;;;14.80;99.90;;;;;;4975445;28;20522;-75
2022/09/13 03:36:30;;;;;;;6.17;5.57;;;14.70;99.90;;;;;;4975364;28;20774;-73
2022/09/13 03:39:07;;;;;;;6.50;5.47;;;14.70;99.90;;;;;;4975152;28;20462;-74
2022/09/13 03:41:39;;;;;;;6.70;4.93;;;14.80;99.90;;;;;;4975221;28;20417;-74
2022/09/13 03:44:13;;;;;;;6.37;5.60;;;14.70;99.90;;;;;;4975001;28;20434;-75
2022/09/13 03:46:47;;;;;;;6.40;5.40;;;14.70;99.90;;;;;;4975463;28;20426;-73
2022/09/13 03:49:25;;;;;;;10.30;4.70;;;14.60;99.90;;;;;;4975135;28;20514;-75
2022/09/13 03:51:54;;;;;;;7.37;5.60;;;14.60;99.90;;;;;;4976448;28;20438;-73
2022/09/13 03:54:31;;;;;;;6.57;4.90;;;14.60;99.90;;;;;;4978423;28;20764;-75
2022/09/13 03:57:22;;;;;;;6.70;6.00;;;14.60;99.90;;;;;;4978045;28;20429;-74
2022/09/13 03:59:49;;;;;;;7.40;5.67;;;14.60;99.90;;;;;;4978017;28;20437;-73
2022/09/13 04:02:19;;;;;;;6.17;5.67;;;14.60;99.90;;;;;;4977831;28;20450;-75
2022/09/13 04:04:49;;;;;;;7.07;5.30;;;14.60;99.90;;;;;;4977948;28;20432;-75
2022/09/13 04:07:27;;;;;;;5.90;5.20;;;14.50;99.90;;;;;;4977939;28;20441;-75
2022/09/13 04:09:56;;;;;;;6.37;5.77;;;14.50;99.90;;;;;;4995149;28;20564;-73
2022/09/13 04:12:30;;;;;;;7.07;6.30;;;14.50;99.90;;;;;;4977662;28;20445;-73
2022/09/13 04:14:59;;;;;;;14.27;5.77;;;14.40;99.90;;;;;;4977645;28;20962;-75
2022/09/13 04:17:28;;;;;;;6.50;5.33;;;14.40;99.90;;;;;;4977614;28;20441;-73
2022/09/13 04:20:04;;;;;;;7.60;6.00;;;14.40;99.90;;;;;;4977653;28;20452;-75
2022/09/13 04:22:30;;;;;;;6.90;5.63;;;14.40;99.90;;;;;;4977879;28;20441;-75
2022/09/13 04:25:00;;;;;;;7.30;6.00;;;14.40;99.90;;;;;;4977366;28;20482;-73
2022/09/13 04:27:28;;;;;;;6.13;5.40;;;14.40;99.90;;;;;;4977244;28;20445;-75
2022/09/13 04:29:56;;;;;;;7.00;5.93;;;14.40;99.90;;;;;;4977471;28;20868;-75
2022/09/13 04:32:26;;;;;;;6.33;5.60;;;14.30;99.90;;;;;;4994882;28;20938;-74
2022/09/13 04:34:53;;;;;;;6.63;5.97;;;14.30;99.90;;;;;;4977569;28;20418;-73
2022/09/13 04:37:22;;;;;;;6.80;5.20;;;14.30;99.90;;;;;;4975827;28;20500;-75
2022/09/13 04:39:50;;;;;;;6.77;6.07;;;14.30;99.90;;;;;;4974229;28;20434;-75
2022/09/13 04:42:18;;;;;;;7.13;6.13;;;14.30;99.90;;;;;;4957990;28;20481;-73
2022/09/13 04:44:49;;;;;;;7.93;5.87;;;14.30;99.90;;;;;;4974171;28;20429;-74
2022/09/13 04:47:19;;;;;;;7.17;6.03;;;14.30;99.90;;;;;;4957377;28;20465;-73
2022/09/13 04:49:47;;;;;;;7.80;5.83;;;14.30;99.90;;;;;;4975855;28;20548;-75
2022/09/13 04:52:15;;;;;;;7.90;6.27;;;14.30;99.90;;;;;;4972962;28;20514;-74
2022/09/13 04:54:42;;;;;;;6.57;5.53;;;14.30;99.90;;;;;;4973476;28;20522;-73
2022/09/13 04:57:08;;;;;;;6.93;6.17;;;14.30;99.90;;;;;;4973638;28;20449;-73
2022/09/13 04:59:36;;;;;;;6.60;5.67;;;14.30;99.90;;;;;;4971851;28;20439;-73
2022/09/13 05:02:07;;;;;;;9.50;6.03;;;14.30;99.90;;;;;;4971530;28;20188;-75
2022/09/13 05:04:34;;;;;;;9.93;5.83;;;14.30;99.90;;;;;;4972948;28;20429;-73
2022/09/13 05:07:00;;;;;;;6.70;5.80;;;14.30;99.90;;;;;;4972981;28;20441;-73
2022/09/13 05:10:03;;;;;;;8.20;6.00;;;14.30;99.90;;;;;;4970318;28;20482;-75
2022/09/13 05:12:31;;;;;;;7.63;6.37;;;14.30;99.90;;;;;;4984815;28;20474;-75
2022/09/13 05:14:57;;;;;;;9.80;6.30;;;14.30;99.90;;;;;;4988632;28;20430;-73
2022/09/13 05:17:25;;;;;;;7.60;5.20;;;14.40;99.90;;;;;;4973278;28;20802;-73
2022/09/13 05:19:58;;;;;;;6.77;6.17;;;14.40;99.90;;;;;;4971141;28;20192;-73
2022/09/13 05:22:26;;;;;;;5.77;5.23;;;14.40;99.90;;;;;;4967027;28;20458;-73
2022/09/13 05:24:53;;;;;;;10.67;7.00;;;14.40;99.90;;;;;;4971515;28;21265;-75
2022/09/13 05:27:22;;;;;;;8.33;5.67;;;14.50;99.90;;;;;;4968813;28;20471;-75
2022/09/13 05:29:50;;;;;;;6.97;6.23;;;14.50;99.90;;;;;;4972124;28;20941;-75
2022/09/13 05:32:16;;;;;;;7.43;6.07;;;14.50;99.90;;;;;;4969741;28;20458;-74
2022/09/13 05:34:41;;;;;;;7.63;6.80;;;14.60;99.90;;;;;;4971568;28;20438;-74
2022/09/13 05:37:14;;;;;;;8.90;6.60;;;14.60;99.90;;;;;;4972414;28;20434;-75
2022/09/13 05:39:41;;;;;;;9.83;6.50;;;14.60;99.90;;;;;;4972283;28;20626;-74
2022/09/13 05:42:07;;;;;;;7.30;6.60;;;14.70;99.90;;;;;;4970867;28;20528;-74
2022/09/13 05:48:04;;;;;;;8.00;5.67;;;14.90;99.90;;;;;;4960937;28;20489;-73
2022/09/13 05:50:30;;;;;;;6.90;6.13;;;15.00;99.90;;;;;;4971855;28;20529;-75
2022/09/13 05:52:58;;;;;;;8.23;7.03;;;15.10;99.90;;;;;;4967888;28;20580;-75
2022/09/13 05:55:29;;;;;;;7.90;5.67;;;15.20;99.90;;;;;;4970721;28;20427;-73
2022/09/13 05:57:57;;;;;;;6.47;5.53;;;15.30;99.90;;;;;;4957598;28;20494;-75
2022/09/13 06:00:22;;;;;;;7.40;5.77;;;15.40;99.90;;;;;;4979529;28;20874;-73
2022/09/13 06:02:50;;;;;;;8.80;6.60;;;15.40;99.90;;;;;;4971218;28;20542;-73
2022/09/13 06:05:17;;;;;;;6.50;5.90;;;15.50;99.90;;;;;;4988283;28;20524;-73
2022/09/13 06:07:42;;;;;;;6.60;5.87;;;15.70;99.90;;;;;;4975031;28;20805;-74
2022/09/13 06:10:16;;;;;;;6.30;5.23;;;15.70;99.90;;;;;;4975674;28;20441;-73
2022/09/13 06:16:18;;;;;;;7.10;5.67;;;15.90;99.90;;;;;;4957770;29;20809;-73
2022/09/13 06:18:45;;;;;;;6.10;5.07;;;16.10;99.90;;;;;;4972613;28;20454;-75
2022/09/13 06:21:16;;;;;;;5.80;5.20;;;16.20;99.90;;;;;;4969679;28;20449;-73
2022/09/13 06:23:54;;;;;;;6.13;5.10;;;16.30;99.90;;;;;;4978922;28;20481;-76
2022/09/13 06:26:27;;;;;;;5.37;4.80;;;16.40;99.90;;;;;;4975796;28;20438;-76
2022/09/13 06:28:57;;;;;;;5.40;4.90;;;16.50;99.90;;;;;;4975606;28;20517;-73
2022/09/13 06:34:06;;;;;;;6.53;4.80;;;16.70;99.90;;;;;;4977474;28;20784;-75
2022/09/13 06:36:38;;;;;;;5.20;4.70;;;16.70;99.90;;;;;;4975280;28;20422;-73
2022/09/13 06:39:13;;;;;;;5.57;4.70;;;16.80;99.90;;;;;;4959507;28;20439;-74
2022/09/13 06:41:48;;;;;;;5.30;4.60;;;16.90;99.90;;;;;;4987384;28;20804;-74
2022/09/13 06:44:18;;;;;;;5.00;4.50;;;17.00;99.90;;;;;;4991579;28;20477;-74
2022/09/13 06:46:49;;;;;;;7.10;5.43;;;17.00;99.90;;;;;;4974061;28;20482;-74
2022/09/13 06:49:20;;;;;;;7.67;4.33;;;17.20;99.90;;;;;;4975249;28;20462;-75
2022/09/13 06:51:49;;;;;;;6.20;4.70;;;17.20;99.90;;;;;;4976253;28;20445;-74
2022/09/13 06:54:19;;;;;;;4.80;4.37;;;17.30;99.90;;;;;;4977817;28;20507;-74
2022/09/13 06:56:45;;;;;;;5.53;4.70;;;17.40;99.90;;;;;;4975690;28;20452;-74
2022/09/13 06:59:16;;;;;;;4.57;4.17;;;17.50;99.90;;;;;;4977051;28;20455;-74
2022/09/13 07:01:45;;;;;;;5.10;4.13;;;17.60;99.90;;;;;;4978480;28;20447;-74
2022/09/13 07:04:21;;;;;;;4.90;4.43;;;17.70;99.90;;;;;;4977328;28;20494;-74
2022/09/13 07:06:50;;;;;;;5.23;4.73;;;17.80;99.90;;;;;;4974818;28;20441;-74
2022/09/13 07:09:21;;;;;;;4.17;3.80;;;17.80;99.90;;;;;;4987413;28;20477;-73
2022/09/13 07:11:53;;;;;;;4.90;3.93;;;17.90;99.90;;;;;;4975357;28;20807;-74
2022/09/13 07:14:24;;;;;;;10.07;4.10;;;18.00;99.90;;;;;;4972643;28;20422;-74
2022/09/13 07:16:51;;;;;;;4.80;4.23;;;18.10;99.90;;;;;;4976993;28;20470;-74
2022/09/13 07:19:22;;;;;;;9.73;4.00;;;18.20;99.90;;;;;;4975128;28;20423;-74
2022/09/13 07:21:50;;;;;;;3.80;3.50;;;18.30;99.90;;;;;;4976305;28;20445;-76
2022/09/13 07:24:20;;;;;;;7.67;3.90;;;18.40;99.90;;;;;;4992827;28;20440;-76
2022/09/13 07:26:46;;;;;;;4.03;3.63;;;18.40;99.90;;;;;;4976738;28;20474;-76
2022/09/13 07:29:21;;;;;;;3.60;3.30;;;18.50;99.90;;;;;;4974756;28;20470;-75
2022/09/13 07:31:50;;;;;;;5.33;3.73;;;18.60;99.90;;;;;;4973387;28;20503;-76
2022/09/13 07:34:22;;;;;;;3.97;3.67;;;18.70;99.90;;;;;;4985986;28;20489;-75
2022/09/13 07:36:55;;;;;;;4.20;3.80;;;18.80;99.90;;;;;;4986412;28;20827;-75
2022/09/13 07:39:24;;;;;;;4.00;3.60;;;18.90;99.90;;;;;;4989537;28;20470;-73
2022/09/13 07:41:56;;;;;;;4.13;3.60;;;19.00;99.90;;;;;;4989494;28;20940;-73
2022/09/13 07:44:29;;;;;;;5.10;4.33;;;19.10;99.90;;;;;;4975982;28;20451;-77
2022/09/13 07:46:55;;;;;;;3.97;3.47;;;19.20;99.90;;;;;;4973198;28;20446;-73
2022/09/13 07:49:26;;;;;;;3.87;3.50;;;19.20;99.90;;;;;;4973874;28;20475;-77
2022/09/13 07:51:55;;;;;;;3.27;3.07;;;19.30;99.90;;;;;;4992280;28;20839;-77
2022/09/13 07:54:22;;;;;;;3.63;3.33;;;19.30;99.90;;;;;;4976041;28;20487;-77
2022/09/13 07:56:53;;;;;;;4.20;3.07;;;19.30;99.90;;;;;;4977416;28;21050;-77
2022/09/13 07:59:24;;;;;;;3.83;3.07;;;19.40;99.90;;;;;;4975111;28;20459;-77
2022/09/13 08:01:54;;;;;;;3.77;2.83;;;19.50;99.90;;;;;;4976165;28;20448;-74
2022/09/13 08:04:34;;;;;;;3.07;2.77;;;19.60;99.90;;;;;;4976636;28;20803;-77
2022/09/13 08:07:03;;;;;;;3.17;2.87;;;19.70;99.90;;;;;;4974658;28;20480;-74
2022/09/13 08:09:35;;;;;;;3.57;3.27;;;19.80;99.90;;;;;;4977406;28;20477;-74
2022/09/13 08:12:02;;;;;;;3.47;2.70;;;19.80;99.90;;;;;;4977674;28;20802;-75
2022/09/13 08:14:31;;;;;;;7.17;3.17;;;19.90;99.90;;;;;;4992145;28;20483;-75
2022/09/13 08:17:00;;;;;;;3.23;3.00;;;20.00;99.90;;;;;;4974920;28;20436;-75
2022/09/13 08:19:32;;;;;;;3.50;2.50;;;20.10;99.90;;;;;;4975495;28;20428;-74
2022/09/13 08:22:03;;;;;;;3.30;2.43;;;20.30;99.90;;;;;;4975410;28;20449;-77
2022/09/13 08:24:36;;;;;;;3.13;2.60;;;20.40;99.90;;;;;;4973132;28;20472;-74
2022/09/13 08:27:02;;;;;;;4.40;2.47;;;20.70;99.90;;;;;;4974535;28;20512;-74
2022/09/13 08:29:34;;;;;;;3.27;2.97;;;21.40;99.90;;;;;;4975151;28;20469;-75
2022/09/13 08:32:01;;;;;;;2.97;2.67;;;22.20;99.90;;;;;;4974903;28;20430;-78
2022/09/13 08:34:31;;;;;;;4.40;3.40;;;23.30;99.90;;;;;;4973943;28;20491;-73
2022/09/13 08:36:57;;;;;;;2.30;2.10;;;24.20;99.90;;;;;;4972308;28;20441;-74
2022/09/13 08:39:24;;;;;;;3.13;2.67;;;25.00;99.90;;;;;;4972447;28;20419;-79
2022/09/13 08:42:19;;;;;;;3.67;3.03;;;26.00;98.60;;;;;;4968526;28;20186;-77
2022/09/13 08:44:56;;;;;;;4.77;3.17;;;26.80;97.80;;;;;;4964914;28;20438;-77
2022/09/13 08:47:40;;;;;;;2.83;2.60;;;27.40;95.90;;;;;;4971272;28;20730;-77
2022/09/13 08:50:20;;;;;;;4.87;2.53;;;27.50;94.70;;;;;;4970507;28;21174;-73
2022/09/13 08:53:17;;;;;;;3.33;3.03;;;27.40;94.20;;;;;;4969642;28;20495;-74
2022/09/13 08:56:18;;;;;;;3.00;2.80;;;26.90;94.60;;;;;;4968061;28;20448;-76
2022/09/13 08:59:05;;;;;;;3.20;2.80;;;26.30;94.70;;;;;;4986276;28;20458;-77
2022/09/13 09:02:15;;;;;;;2.97;2.63;;;25.80;95.10;;;;;;4970595;28;20822;-79
2022/09/13 09:05:04;;;;;;;3.10;2.80;;;25.30;95.50;;;;;;4970934;28;20982;-78
2022/09/13 09:07:52;;;;;;;4.83;2.97;;;24.90;96.00;;;;;;4986198;28;20479;-74
2022/09/13 09:10:25;;;;;;;2.93;2.63;;;24.60;96.10;;;;;;4989026;28;20456;-78
2022/09/13 09:12:51;;;;;;;3.23;2.70;;;24.40;96.70;;;;;;4972302;28;21002;-76
2022/09/13 09:15:20;;;;;;;4.67;2.57;;;24.40;96.10;;;;;;4972494;28;20418;-76
2022/09/13 09:18:01;;;;;;;2.90;2.60;;;24.40;96.30;;;;;;4985865;28;20212;-76
2022/09/13 09:21:07;;;;;;;2.93;2.73;;;24.40;95.90;;;;;;4971541;28;20888;-77
2022/09/13 09:23:40;;;;;;;2.30;2.10;;;24.20;95.80;;;;;;4952398;28;20479;-76
2022/09/13 09:26:25;;;;;;;2.67;2.50;;;24.10;95.90;;;;;;4967873;28;20479;-73
2022/09/13 09:29:16;;;;;;;3.03;2.47;;;24.10;95.50;;;;;;4978954;28;20682;-74
2022/09/13 09:31:51;;;;;;;2.60;2.40;;;24.00;94.60;;;;;;4988866;28;20438;-73
2022/09/13 09:34:31;;;;;;;3.17;2.30;;;23.80;94.30;;;;;;4990420;28;20473;-73
2022/09/13 09:37:24;;;;;;;5.13;3.07;;;23.70;95.20;;;;;;4971316;28;20451;-74
2022/09/13 09:39:52;;;;;;;3.93;2.50;;;23.50;95.60;;;;;;4975307;28;21002;-73
2022/09/13 09:42:29;;;;;;;3.57;2.93;;;23.40;96.40;;;;;;4980981;28;20455;-76
2022/09/13 09:45:02;;;;;;;2.90;2.70;;;23.30;96.20;;;;;;4979840;28;20414;-77
2022/09/13 09:47:49;;;;;;;3.73;3.40;;;23.20;96.20;;;;;;4957505;28;20546;-77
2022/09/13 09:50:28;;;;;;;2.83;2.63;;;23.10;96.20;;;;;;4958918;28;20431;-78
2022/09/13 09:53:06;;;;;;;3.13;2.83;;;23.00;95.50;;;;;;4971334;28;20477;-74
2022/09/13 09:55:36;;;;;;;2.63;2.43;;;22.90;95.90;;;;;;4967136;28;20521;-76
2022/09/13 09:58:10;;;;;;;2.70;2.40;;;22.80;96.40;;;;;;4969118;28;20466;-76
2022/09/13 10:00:50;;;;;;;2.73;2.53;;;22.80;97.70;;;;;;4971433;28;20525;-77
2022/09/13 10:03:25;;;;;;;3.43;3.13;;;22.70;98.30;;;;;;4971108;28;20970;-74
2022/09/13 10:06:10;;;;;;;5.23;3.00;;;22.70;98.50;;;;;;4987800;28;20433;-78
2022/09/13 10:08:39;;;;;;;2.83;2.53;;;22.70;97.20;;;;;;4964107;28;20498;-74
2022/09/13 10:11:06;;;;;;;2.40;2.20;;;22.70;96.90;;;;;;4983676;28;20426;-76
2022/09/13 10:13:37;;;;;;;2.63;2.43;;;22.60;96.70;;;;;;4974499;28;20552;-73
2022/09/13 10:16:26;;;;;;;4.53;2.50;;;22.60;97.60;;;;;;4973940;28;20509;-75
2022/09/13 10:18:54;;;;;;;3.40;2.60;;;22.60;96.30;;;;;;4970390;28;20469;-77
2022/09/13 10:21:26;;;;;;;3.00;2.80;;;22.50;96.30;;;;;;4969998;28;20416;-73
2022/09/13 10:24:23;;;;;;;2.63;2.43;;;22.50;96.70;;;;;;4974360;28;21022;-77
2022/09/13 10:26:55;;;;;;;3.33;2.80;;;22.50;96.80;;;;;;4954049;28;20451;-77
2022/09/13 10:29:25;;;;;;;3.17;2.30;;;22.50;96.60;;;;;;4962549;28;20478;-77
2022/09/13 10:31:57;;;;;;;2.50;2.20;;;22.50;96.50;;;;;;4969758;28;20493;-73
2022/09/13 10:34:37;;;;;;;2.60;2.40;;;22.50;96.40;;;;;;4969297;28;20465;-73
2022/09/13 10:37:11;;;;;;;2.87;2.67;;;22.50;96.00;;;;;;4970735;28;21044;-77
2022/09/13 10:40:01;;;;;;;3.10;2.70;;;22.50;96.60;;;;;;4970625;28;20432;-74
2022/09/13 10:42:35;;;;;;;3.40;3.13;;;22.50;96.30;;;;;;4970322;28;20831;-76
2022/09/13 10:45:07;;;;;;;2.60;2.33;;;22.50;96.60;;;;;;4973918;28;20423;-73
2022/09/13 10:47:50;;;;;;;2.37;2.17;;;22.50;96.70;;;;;;4967744;28;20474;-76
2022/09/13 10:50:34;;;;;;;2.97;2.67;;;22.50;96.20;;;;;;4967639;28;20999;-73
2022/09/13 10:53:25;;;;;;;5.73;2.93;;;22.50;95.80;;;;;;4966957;28;20508;-74
2022/09/13 10:55:56;;;;;;;5.60;2.80;;;22.50;95.50;;;;;;4970772;28;20487;-73
2022/09/13 10:58:23;;;;;;;2.40;2.20;;;22.50;96.10;;;;;;4969081;28;20472;-73
2022/09/13 11:00:57;;;;;;;3.77;2.47;;;22.50;95.40;;;;;;4971758;28;20565;-77
2022/09/13 11:03:26;;;;;;;4.30;3.70;;;22.50;96.10;;;;;;4968521;28;20450;-77
2022/09/13 11:06:37;;;;;;;2.40;2.20;;;22.50;95.90;;;;;;4990826;28;20437;-73
2022/09/13 11:09:21;;;;;;;3.60;2.53;;;22.50;95.50;;;;;;4934260;28;20480;-77
2022/09/13 11:11:56;;;;;;;3.77;2.47;;;22.50;95.70;;;;;;4969371;28;20440;-73
2022/09/13 11:14:42;;;;;;;5.33;2.67;;;22.50;95.80;;;;;;4972099;28;20513;-77
2022/09/13 11:17:19;;;;;;;3.90;2.50;;;22.50;95.50;;;;;;4971664;28;21218;-73
2022/09/13 11:20:05;;;;;;;2.57;2.37;;;22.50;95.30;;;;;;4965821;28;20980;-73
2022/09/13 11:22:44;;;;;;;2.70;2.33;;;22.60;95.20;;;;;;4971927;28;20473;-77
2022/09/13 11:25:41;;;;;;;2.50;2.30;;;22.60;95.20;;;;;;4982134;28;20471;-73
2022/09/13 11:28:13;;;;;;;2.53;2.20;;;22.60;95.40;;;;;;4971358;28;20480;-72
2022/09/13 11:31:02;;;;;;;2.60;2.40;;;22.60;96.60;;;;;;4986708;28;20528;-76
2022/09/13 11:34:01;;;;;;;2.80;2.40;;;22.60;98.20;;;;;;4979354;28;21035;-73
2022/09/13 11:37:02;;;;;;;2.40;2.20;;;22.60;95.70;;;;;;4971158;28;20485;-73
2022/09/13 11:40:08;;;;;;;2.47;2.27;;;22.60;95.70;;;;;;4970367;28;20435;-73
2022/09/13 11:42:58;;;;;;;22.43;13.83;;;22.60;95.80;;;;;;4965835;28;20472;-77
2022/09/13 11:45:31;;;;;;;3.37;3.07;;;22.70;96.00;;;;;;4969124;28;20418;-76
2022/09/13 11:48:27;;;;;;;2.73;2.10;;;22.70;95.20;;;;;;4970866;28;20459;-72
2022/09/13 11:51:24;;;;;;;4.10;2.70;;;22.80;95.30;;;;;;4970026;28;20438;-77
2022/09/13 11:54:23;;;;;;;2.43;2.23;;;22.80;95.50;;;;;;4967081;28;21062;-77
2022/09/13 11:56:58;;;;;;;2.57;2.37;;;22.80;95.20;;;;;;4970125;28;20930;-73
2022/09/13 11:59:50;;;;;;;1.97;1.87;;;22.90;95.80;;;;;;4970658;28;20518;-73
2022/09/13 12:02:29;;;;;;;3.27;2.40;;;22.90;95.80;;;;;;4966600;28;20496;-76
2022/09/13 12:05:24;;;;;;;2.50;2.30;;;22.90;95.80;;;;;;4972217;28;20438;-78
2022/09/13 12:08:06;;;;;;;2.30;2.10;;;23.00;96.30;;;;;;4967458;28;21009;-76
2022/09/13 12:10:44;;;;;;;2.37;2.23;;;23.00;95.90;;;;;;4968290;28;20804;-78
2022/09/13 12:13:26;;;;;;;2.33;2.13;;;23.10;95.10;;;;;;4986076;28;20542;-73
2022/09/13 12:16:04;;;;;;;4.93;2.53;;;23.10;94.50;;;;;;4967999;28;20437;-73
2022/09/13 12:18:41;;;;;;;2.60;2.40;;;23.10;94.20;;;;;;4964832;28;20499;-77
2022/09/13 12:21:13;;;;;;;3.67;2.20;;;23.10;94.10;;;;;;4961040;28;20440;-77
2022/09/13 12:24:13;;;;;;;2.53;2.23;;;23.10;93.90;;;;;;4978654;28;20511;-73
2022/09/13 12:26:58;;;;;;;2.43;2.23;;;23.10;93.70;;;;;;4963745;28;20440;-73
2022/09/13 12:29:48;;;;;;;2.00;1.90;;;23.10;93.80;;;;;;4961919;28;20570;-77
2022/09/13 12:32:23;;;;;;;3.00;2.40;;;23.10;93.50;;;;;;4964334;28;20880;-73
2022/09/13 12:35:21;;;;;;;2.10;1.90;;;23.10;93.40;;;;;;4965722;28;20436;-73
2022/09/13 12:38:19;;;;;;;2.23;2.03;;;23.10;93.40;;;;;;4968444;28;20463;-76
2022/09/13 12:40:59;;;;;;;2.20;2.00;;;23.10;93.40;;;;;;4963460;28;20481;-73
2022/09/13 12:43:40;;;;;;;2.57;2.40;;;23.10;93.40;;;;;;4969075;28;20476;-73
2022/09/13 12:46:23;;;;;;;2.60;2.40;;;23.10;93.50;;;;;;4982461;28;21040;-77
2022/09/13 12:49:13;;;;;;;1.90;1.80;;;23.20;93.60;;;;;;4981111;28;20473;-72
2022/09/13 12:54:42;;;;;;;2.40;2.20;;;23.20;93.30;;;;;;5134129;23;20995;-73
2022/09/13 12:57:25;;;;;;;1.80;1.70;;;23.20;93.70;;;;;;5004912;28;20449;-73
2022/09/13 12:59:50;;;;;;;2.23;2.03;;;23.20;93.70;;;;;;5010686;28;20441;-77
2022/09/13 13:02:37;;;;;;;2.27;2.10;;;23.20;93.60;;;;;;5008820;28;20486;-77
2022/09/13 13:05:33;;;;;;;1.60;1.50;;;23.20;93.90;;;;;;5005019;28;20184;-78
2022/09/13 13:08:08;;;;;;;2.40;2.20;;;23.20;93.20;;;;;;5015907;28;20477;-73
2022/09/13 13:10:39;;;;;;;2.40;2.20;;;23.20;92.60;;;;;;5006539;28;20866;-77
2022/09/13 13:13:42;;;;;;;2.40;2.20;;;23.10;92.80;;;;;;5004201;28;21175;-73
2022/09/13 13:16:32;;;;;;;2.00;1.90;;;23.10;93.40;;;;;;4997009;28;20789;-77
2022/09/13 13:19:04;;;;;;;3.80;2.10;;;23.10;93.70;;;;;;5000675;28;21026;-79
2022/09/13 13:21:39;;;;;;;3.00;1.80;;;23.10;93.80;;;;;;5011927;28;20529;-78
2022/09/13 13:24:14;;;;;;;2.43;2.23;;;23.10;93.30;;;;;;5010509;28;20470;-77
2022/09/13 13:26:53;;;;;;;2.13;1.83;;;23.20;93.20;;;;;;5007764;28;20483;-72
2022/09/13 13:29:22;;;;;;;2.20;2.10;;;23.20;93.40;;;;;;5008713;28;21138;-73
2022/09/13 13:32:06;;;;;;;2.23;2.03;;;23.20;94.00;;;;;;5020173;28;20449;-73
2022/09/13 13:34:54;;;;;;;2.27;2.10;;;23.20;93.60;;;;;;5008577;28;20445;-79
2022/09/13 13:37:33;;;;;;;2.70;2.00;;;23.20;93.60;;;;;;5009746;28;20983;-79
2022/09/13 13:40:11;;;;;;;2.03;1.80;;;23.20;93.30;;;;;;5009101;28;20420;-77
2022/09/13 13:42:44;;;;;;;2.40;2.20;;;23.20;93.10;;;;;;5009051;28;20456;-77
2022/09/13 13:45:30;;;;;;;2.70;2.30;;;23.20;93.20;;;;;;5010484;28;20417;-73